sensor_id;sensor_type;location;lat;lon;timestamp;temperature;humidity
6102;DHT22;3081;50.584;7.032;2022-11-15T00:02:10;12.30;99.90
6102;DHT22;3081;50.584;7.032;2022-11-15T00:04:37;12.30;99.90
6102;DHT22;3081;50.584;7.032;2022-11-15T00:07:05;12.30;99.90
6102;DHT22;3081;50.584;7.032;2022-11-15T00:09:32;12.30;99.90
6102;DHT22;3081;50.584;7.032;2022-11-15T00:11:59;12.30;99.90
6102;DHT22;3081;50.584;7.032;2022-11-15T00:14:26;12.30;99.90
6102;DHT22;3081;50.584;7.032;2022-11-15T00:16:53;12.30;99.90
6102;DHT22;3081;50.584;7.032;2022-11-15T00:19:19;12.40;99.90
6102;DHT22;3081;50.584;7.032;2022-11-15T00:21:46;12.40;99.90
6102;DHT22;3081;50.584;7.032;2022-11-15T00:24:15;12.40;99.90
6102;DHT22;3081;50.584;7.032;2022-11-15T00:26:42;12.50;99.90
6102;DHT22;3081;50.584;7.032;2022-11-15T00:29:08;12.50;99.90
6102;DHT22;3081;50.584;7.032;2022-11-15T00:31:35;12.50;99.90
6102;DHT22;3081;50.584;7.032;2022-11-15T00:34:02;12.60;99.90
6102;DHT22;3081;50.584;7.032;2022-11-15T00:36:32;12.60;99.90
6102;DHT22;3081;50.584;7.032;2022-11-15T00:39:00;12.70;99.90
6102;DHT22;3081;50.584;7.032;2022-11-15T00:41:28;12.70;99.90
6102;DHT22;3081;50.584;7.032;2022-11-15T00:43:55;12.80;99.90
6102;DHT22;3081;50.584;7.032;2022-11-15T00:46:22;12.80;99.90
6102;DHT22;3081;50.584;7.032;2022-11-15T00:48:49;12.80;99.90
6102;DHT22;3081;50.584;7.032;2022-11-15T00:51:16;12.80;99.90
6102;DHT22;3081;50.584;7.032;2022-11-15T00:53:43;12.80;99.90
6102;DHT22;3081;50.584;7.032;2022-11-15T00:56:10;12.90;99.90
6102;DHT22;3081;50.584;7.032;2022-11-15T00:58:38;12.80;99.90
6102;DHT22;3081;50.584;7.032;2022-11-15T01:01:06;12.90;99.90
6102;DHT22;3081;50.584;7.032;2022-11-15T01:03:33;12.90;99.90
6102;DHT22;3081;50.584;7.032;2022-11-15T01:06:00;12.90;99.90
6102;DHT22;3081;50.584;7.032;2022-11-15T01:08:27;12.90;99.90
6102;DHT22;3081;50.584;7.032;2022-11-15T01:10:54;12.90;99.90
6102;DHT22;3081;50.584;7.032;2022-11-15T01:13:21;12.90;99.90
6102;DHT22;3081;50.584;7.032;2022-11-15T01:15:49;12.90;99.90
6102;DHT22;3081;50.584;7.032;2022-11-15T01:18:16;12.90;99.90
6102;DHT22;3081;50.584;7.032;2022-11-15T01:20:43;12.90;99.90
6102;DHT22;3081;50.584;7.032;2022-11-15T01:23:10;12.90;99.90
6102;DHT22;3081;50.584;7.032;2022-11-15T01:25:37;12.90;99.90
6102;DHT22;3081;50.584;7.032;2022-11-15T01:28:04;12.90;99.90
6102;DHT22;3081;50.584;7.032;2022-11-15T01:30:31;12.90;99.90
6102;DHT22;3081;50.584;7.032;2022-11-15T01:32:59;12.90;99.90
6102;DHT22;3081;50.584;7.032;2022-11-15T01:35:26;12.90;99.90
6102;DHT22;3081;50.584;7.032;2022-11-15T01:37:53;12.90;99.90
6102;DHT22;3081;50.584;7.032;2022-11-15T01:40:20;13.00;99.90
6102;DHT22;3081;50.584;7.032;2022-11-15T01:42:47;13.00;99.90
6102;DHT22;3081;50.584;7.032;2022-11-15T01:45:15;13.00;99.90
6102;DHT22;3081;50.584;7.032;2022-11-15T01:47:44;13.00;99.90
6102;DHT22;3081;50.584;7.032;2022-11-15T01:50:16;13.00;99.90
6102;DHT22;3081;50.584;7.032;2022-11-15T01:52:44;13.00;99.90
6102;DHT22;3081;50.584;7.032;2022-11-15T01:55:14;13.10;99.90
6102;DHT22;3081;50.584;7.032;2022-11-15T01:57:44;13.10;99.90
6102;DHT22;3081;50.584;7.032;2022-11-15T02:00:14;13.10;99.90
6102;DHT22;3081;50.584;7.032;2022-11-15T02:02:41;13.10;99.90
6102;DHT22;3081;50.584;7.032;2022-11-15T02:05:08;13.10;99.90
6102;DHT22;3081;50.584;7.032;2022-11-15T02:07:36;13.10;99.90
6102;DHT22;3081;50.584;7.032;2022-11-15T02:10:07;13.10;99.90
6102;DHT22;3081;50.584;7.032;2022-11-15T02:12:35;13.10;99.90
6102;DHT22;3081;50.584;7.032;2022-11-15T02:15:04;13.10;99.90
6102;DHT22;3081;50.584;7.032;2022-11-15T02:17:45;13.20;99.90
6102;DHT22;3081;50.584;7.032;2022-11-15T02:20:55;13.20;99.90
6102;DHT22;3081;50.584;7.032;2022-11-15T02:29:48;13.20;99.90
6102;DHT22;3081;50.584;7.032;2022-11-15T02:32:26;13.20;99.90
6102;DHT22;3081;50.584;7.032;2022-11-15T02:34:59;13.20;99.90
6102;DHT22;3081;50.584;7.032;2022-11-15T02:37:33;13.20;99.90
6102;DHT22;3081;50.584;7.032;2022-11-15T02:40:08;13.20;99.90
6102;DHT22;3081;50.584;7.032;2022-11-15T02:42:43;13.20;99.90
6102;DHT22;3081;50.584;7.032;2022-11-15T02:45:39;13.10;99.90
6102;DHT22;3081;50.584;7.032;2022-11-15T02:48:11;13.20;99.90
6102;DHT22;3081;50.584;7.032;2022-11-15T02:50:38;13.20;99.90
6102;DHT22;3081;50.584;7.032;2022-11-15T02:53:07;13.20;99.90
6102;DHT22;3081;50.584;7.032;2022-11-15T02:55:35;13.20;99.90
6102;DHT22;3081;50.584;7.032;2022-11-15T02:58:21;13.20;99.90
6102;DHT22;3081;50.584;7.032;2022-11-15T03:00:59;13.10;99.90
6102;DHT22;3081;50.584;7.032;2022-11-15T03:03:44;13.10;99.90
6102;DHT22;3081;50.584;7.032;2022-11-15T03:06:22;13.10;99.90
6102;DHT22;3081;50.584;7.032;2022-11-15T03:08:58;13.10;99.90
6102;DHT22;3081;50.584;7.032;2022-11-15T03:11:29;13.00;99.90
6102;DHT22;3081;50.584;7.032;2022-11-15T03:14:00;13.10;99.90
6102;DHT22;3081;50.584;7.032;2022-11-15T03:16:32;13.10;99.90
6102;DHT22;3081;50.584;7.032;2022-11-15T03:19:10;13.10;99.90
6102;DHT22;3081;50.584;7.032;2022-11-15T03:21:39;13.10;99.90
6102;DHT22;3081;50.584;7.032;2022-11-15T03:24:08;13.10;99.90
6102;DHT22;3081;50.584;7.032;2022-11-15T03:26:37;13.10;99.90
6102;DHT22;3081;50.584;7.032;2022-11-15T03:29:08;13.00;99.90
6102;DHT22;3081;50.584;7.032;2022-11-15T03:31:42;13.00;99.90
6102;DHT22;3081;50.584;7.032;2022-11-15T03:34:20;13.00;99.90
6102;DHT22;3081;50.584;7.032;2022-11-15T03:36:49;13.00;99.90
6102;DHT22;3081;50.584;7.032;2022-11-15T03:39:17;13.00;99.90
6102;DHT22;3081;50.584;7.032;2022-11-15T03:41:49;12.90;99.90
6102;DHT22;3081;50.584;7.032;2022-11-15T03:44:27;13.00;99.90
6102;DHT22;3081;50.584;7.032;2022-11-15T03:47:01;12.90;99.90
6102;DHT22;3081;50.584;7.032;2022-11-15T03:49:33;12.90;99.90
6102;DHT22;3081;50.584;7.032;2022-11-15T03:52:01;12.90;99.90
6102;DHT22;3081;50.584;7.032;2022-11-15T03:54:29;12.80;99.90
6102;DHT22;3081;50.584;7.032;2022-11-15T03:56:56;12.80;99.90
6102;DHT22;3081;50.584;7.032;2022-11-15T03:59:23;12.80;99.90
6102;DHT22;3081;50.584;7.032;2022-11-15T04:01:49;12.80;99.90
6102;DHT22;3081;50.584;7.032;2022-11-15T04:04:16;12.70;99.90
6102;DHT22;3081;50.584;7.032;2022-11-15T04:06:45;12.70;99.90
6102;DHT22;3081;50.584;7.032;2022-11-15T04:09:11;12.70;99.90
6102;DHT22;3081;50.584;7.032;2022-11-15T04:11:38;12.70;99.90
6102;DHT22;3081;50.584;7.032;2022-11-15T04:14:05;12.70;99.90
6102;DHT22;3081;50.584;7.032;2022-11-15T04:16:32;12.70;99.90
6102;DHT22;3081;50.584;7.032;2022-11-15T04:18:59;12.70;99.90
6102;DHT22;3081;50.584;7.032;2022-11-15T04:21:45;12.70;99.90
6102;DHT22;3081;50.584;7.032;2022-11-15T04:24:29;12.70;99.90
6102;DHT22;3081;50.584;7.032;2022-11-15T04:26:56;12.80;99.90
6102;DHT22;3081;50.584;7.032;2022-11-15T04:29:23;12.80;99.90
6102;DHT22;3081;50.584;7.032;2022-11-15T04:32:02;12.80;99.90
6102;DHT22;3081;50.584;7.032;2022-11-15T04:34:29;12.80;99.90
6102;DHT22;3081;50.584;7.032;2022-11-15T04:36:58;12.80;99.90
6102;DHT22;3081;50.584;7.032;2022-11-15T04:39:42;12.80;99.90
6102;DHT22;3081;50.584;7.032;2022-11-15T04:42:10;12.90;99.90
6102;DHT22;3081;50.584;7.032;2022-11-15T04:44:37;12.80;99.90
6102;DHT22;3081;50.584;7.032;2022-11-15T04:47:04;12.80;99.90
6102;DHT22;3081;50.584;7.032;2022-11-15T04:49:31;12.90;99.90
6102;DHT22;3081;50.584;7.032;2022-11-15T04:51:59;12.90;99.90
6102;DHT22;3081;50.584;7.032;2022-11-15T04:54:26;12.90;99.90
6102;DHT22;3081;50.584;7.032;2022-11-15T04:56:53;12.90;99.90
6102;DHT22;3081;50.584;7.032;2022-11-15T04:59:20;12.90;99.90
6102;DHT22;3081;50.584;7.032;2022-11-15T05:01:47;12.90;99.90
6102;DHT22;3081;50.584;7.032;2022-11-15T05:04:14;12.80;99.90
6102;DHT22;3081;50.584;7.032;2022-11-15T05:06:48;12.70;99.90
6102;DHT22;3081;50.584;7.032;2022-11-15T05:09:16;12.60;99.90
6102;DHT22;3081;50.584;7.032;2022-11-15T05:11:44;12.60;99.90
6102;DHT22;3081;50.584;7.032;2022-11-15T05:14:11;12.50;99.90
6102;DHT22;3081;50.584;7.032;2022-11-15T05:16:38;12.40;99.90
6102;DHT22;3081;50.584;7.032;2022-11-15T05:19:05;12.40;99.90
6102;DHT22;3081;50.584;7.032;2022-11-15T05:21:33;12.30;99.90
6102;DHT22;3081;50.584;7.032;2022-11-15T05:24:00;12.30;99.90
6102;DHT22;3081;50.584;7.032;2022-11-15T05:26:29;12.30;99.90
6102;DHT22;3081;50.584;7.032;2022-11-15T05:28:56;12.20;99.90
6102;DHT22;3081;50.584;7.032;2022-11-15T05:31:24;12.10;99.90
6102;DHT22;3081;50.584;7.032;2022-11-15T05:33:52;12.10;99.90
6102;DHT22;3081;50.584;7.032;2022-11-15T05:36:27;12.10;99.90
6102;DHT22;3081;50.584;7.032;2022-11-15T05:38:55;12.10;99.90
6102;DHT22;3081;50.584;7.032;2022-11-15T05:41:26;12.00;99.90
6102;DHT22;3081;50.584;7.032;2022-11-15T05:43:57;12.00;99.90
6102;DHT22;3081;50.584;7.032;2022-11-15T05:46:24;12.00;99.90
6102;DHT22;3081;50.584;7.032;2022-11-15T05:48:52;11.90;99.90
6102;DHT22;3081;50.584;7.032;2022-11-15T05:51:21;11.90;99.90
6102;DHT22;3081;50.584;7.032;2022-11-15T05:53:50;11.90;99.90
6102;DHT22;3081;50.584;7.032;2022-11-15T05:56:18;11.80;99.90
6102;DHT22;3081;50.584;7.032;2022-11-15T05:58:45;11.80;99.90
6102;DHT22;3081;50.584;7.032;2022-11-15T06:01:14;11.80;99.90
6102;DHT22;3081;50.584;7.032;2022-11-15T06:03:40;11.70;99.90
6102;DHT22;3081;50.584;7.032;2022-11-15T06:06:07;11.70;99.90
6102;DHT22;3081;50.584;7.032;2022-11-15T06:08:34;11.70;99.90
6102;DHT22;3081;50.584;7.032;2022-11-15T06:11:05;11.60;99.90
6102;DHT22;3081;50.584;7.032;2022-11-15T06:13:32;11.60;99.90
6102;DHT22;3081;50.584;7.032;2022-11-15T06:15:59;11.60;99.90
6102;DHT22;3081;50.584;7.032;2022-11-15T06:18:28;11.60;99.90
6102;DHT22;3081;50.584;7.032;2022-11-15T06:20:58;11.50;99.90
6102;DHT22;3081;50.584;7.032;2022-11-15T06:23:25;11.50;99.90
6102;DHT22;3081;50.584;7.032;2022-11-15T06:25:52;11.40;99.90
6102;DHT22;3081;50.584;7.032;2022-11-15T06:28:19;11.50;99.90
6102;DHT22;3081;50.584;7.032;2022-11-15T06:30:46;11.40;99.90
6102;DHT22;3081;50.584;7.032;2022-11-15T06:33:13;11.40;99.90
6102;DHT22;3081;50.584;7.032;2022-11-15T06:35:41;11.40;99.90
6102;DHT22;3081;50.584;7.032;2022-11-15T06:38:09;11.40;99.90
6102;DHT22;3081;50.584;7.032;2022-11-15T06:40:38;11.40;99.90
6102;DHT22;3081;50.584;7.032;2022-11-15T06:43:05;11.40;99.90
6102;DHT22;3081;50.584;7.032;2022-11-15T06:45:33;11.40;99.90
6102;DHT22;3081;50.584;7.032;2022-11-15T06:48:00;11.30;99.90
6102;DHT22;3081;50.584;7.032;2022-11-15T06:50:27;11.30;99.90
6102;DHT22;3081;50.584;7.032;2022-11-15T06:52:55;11.30;99.90
6102;DHT22;3081;50.584;7.032;2022-11-15T06:55:26;11.30;99.90
6102;DHT22;3081;50.584;7.032;2022-11-15T06:57:53;11.20;99.90
6102;DHT22;3081;50.584;7.032;2022-11-15T07:00:21;11.20;99.90
6102;DHT22;3081;50.584;7.032;2022-11-15T07:02:48;11.20;99.90
6102;DHT22;3081;50.584;7.032;2022-11-15T07:05:16;11.20;99.90
6102;DHT22;3081;50.584;7.032;2022-11-15T07:07:42;11.20;99.90
6102;DHT22;3081;50.584;7.032;2022-11-15T07:10:11;11.20;99.90
6102;DHT22;3081;50.584;7.032;2022-11-15T07:12:38;11.20;99.90
6102;DHT22;3081;50.584;7.032;2022-11-15T07:15:06;11.10;99.90
6102;DHT22;3081;50.584;7.032;2022-11-15T07:17:33;11.10;99.90
6102;DHT22;3081;50.584;7.032;2022-11-15T07:20:00;11.10;99.90
6102;DHT22;3081;50.584;7.032;2022-11-15T07:22:26;11.10;99.90
6102;DHT22;3081;50.584;7.032;2022-11-15T07:24:53;11.10;99.90
6102;DHT22;3081;50.584;7.032;2022-11-15T07:27:22;11.20;99.90
6102;DHT22;3081;50.584;7.032;2022-11-15T07:29:49;11.30;99.90
6102;DHT22;3081;50.584;7.032;2022-11-15T07:32:15;11.30;99.90
6102;DHT22;3081;50.584;7.032;2022-11-15T07:34:42;11.40;99.90
6102;DHT22;3081;50.584;7.032;2022-11-15T07:37:11;11.40;99.90
6102;DHT22;3081;50.584;7.032;2022-11-15T07:39:38;11.50;99.90
6102;DHT22;3081;50.584;7.032;2022-11-15T07:42:05;11.70;99.90
6102;DHT22;3081;50.584;7.032;2022-11-15T07:44:51;11.90;99.90
6102;DHT22;3081;50.584;7.032;2022-11-15T07:47:18;12.20;99.90
6102;DHT22;3081;50.584;7.032;2022-11-15T07:49:45;12.50;99.90
6102;DHT22;3081;50.584;7.032;2022-11-15T07:52:12;12.80;99.90
6102;DHT22;3081;50.584;7.032;2022-11-15T07:54:40;13.00;99.90
6102;DHT22;3081;50.584;7.032;2022-11-15T07:57:07;13.00;99.90
6102;DHT22;3081;50.584;7.032;2022-11-15T07:59:34;12.90;99.90
6102;DHT22;3081;50.584;7.032;2022-11-15T08:02:03;13.00;99.90
6102;DHT22;3081;50.584;7.032;2022-11-15T08:04:30;13.10;99.90
6102;DHT22;3081;50.584;7.032;2022-11-15T08:06:57;13.20;99.90
6102;DHT22;3081;50.584;7.032;2022-11-15T08:09:24;13.10;99.90
6102;DHT22;3081;50.584;7.032;2022-11-15T08:11:51;13.10;99.90
6102;DHT22;3081;50.584;7.032;2022-11-15T08:14:18;13.10;99.90
6102;DHT22;3081;50.584;7.032;2022-11-15T08:16:46;13.10;99.90
6102;DHT22;3081;50.584;7.032;2022-11-15T08:19:15;13.00;99.90
6102;DHT22;3081;50.584;7.032;2022-11-15T08:21:42;12.90;99.90
6102;DHT22;3081;50.584;7.032;2022-11-15T08:24:10;12.80;99.90
6102;DHT22;3081;50.584;7.032;2022-11-15T08:26:37;12.80;99.90
6102;DHT22;3081;50.584;7.032;2022-11-15T08:29:05;12.80;99.90
6102;DHT22;3081;50.584;7.032;2022-11-15T08:31:33;12.90;99.90
6102;DHT22;3081;50.584;7.032;2022-11-15T08:34:00;12.90;99.90
6102;DHT22;3081;50.584;7.032;2022-11-15T08:36:29;12.90;99.90
6102;DHT22;3081;50.584;7.032;2022-11-15T08:38:56;13.00;99.90
6102;DHT22;3081;50.584;7.032;2022-11-15T08:41:25;13.00;99.90
6102;DHT22;3081;50.584;7.032;2022-11-15T08:43:53;13.10;99.90
6102;DHT22;3081;50.584;7.032;2022-11-15T08:46:20;13.20;99.90
6102;DHT22;3081;50.584;7.032;2022-11-15T08:48:47;13.40;99.90
6102;DHT22;3081;50.584;7.032;2022-11-15T08:51:14;13.60;99.90
6102;DHT22;3081;50.584;7.032;2022-11-15T08:53:42;13.90;99.90
6102;DHT22;3081;50.584;7.032;2022-11-15T08:56:10;14.20;99.90
6102;DHT22;3081;50.584;7.032;2022-11-15T08:58:37;14.40;99.90
6102;DHT22;3081;50.584;7.032;2022-11-15T09:01:05;14.50;99.90
6102;DHT22;3081;50.584;7.032;2022-11-15T09:03:32;14.60;99.90
6102;DHT22;3081;50.584;7.032;2022-11-15T09:06:00;14.70;99.90
6102;DHT22;3081;50.584;7.032;2022-11-15T09:08:30;14.70;99.90
6102;DHT22;3081;50.584;7.032;2022-11-15T09:11:02;14.60;99.90
6102;DHT22;3081;50.584;7.032;2022-11-15T09:13:29;14.40;99.90
6102;DHT22;3081;50.584;7.032;2022-11-15T09:15:57;14.60;99.90
6102;DHT22;3081;50.584;7.032;2022-11-15T09:18:25;15.00;99.90
6102;DHT22;3081;50.584;7.032;2022-11-15T09:20:55;15.10;99.90
6102;DHT22;3081;50.584;7.032;2022-11-15T09:23:23;15.10;99.90
6102;DHT22;3081;50.584;7.032;2022-11-15T09:25:50;15.30;99.90
6102;DHT22;3081;50.584;7.032;2022-11-15T09:28:19;15.40;99.90
6102;DHT22;3081;50.584;7.032;2022-11-15T09:30:46;15.60;99.90
6102;DHT22;3081;50.584;7.032;2022-11-15T09:33:13;15.30;99.90
6102;DHT22;3081;50.584;7.032;2022-11-15T09:35:40;14.80;99.90
6102;DHT22;3081;50.584;7.032;2022-11-15T09:38:07;14.80;99.90
6102;DHT22;3081;50.584;7.032;2022-11-15T09:40:36;14.70;99.90
6102;DHT22;3081;50.584;7.032;2022-11-15T09:43:31;14.80;99.90
6102;DHT22;3081;50.584;7.032;2022-11-15T09:46:07;14.70;99.90
6102;DHT22;3081;50.584;7.032;2022-11-15T09:48:49;14.90;99.90
6102;DHT22;3081;50.584;7.032;2022-11-15T09:51:24;15.20;99.90
6102;DHT22;3081;50.584;7.032;2022-11-15T09:53:57;15.00;99.90
6102;DHT22;3081;50.584;7.032;2022-11-15T09:56:27;14.70;99.90
6102;DHT22;3081;50.584;7.032;2022-11-15T09:59:08;14.60;99.90
6102;DHT22;3081;50.584;7.032;2022-11-15T10:01:44;14.90;99.90
6102;DHT22;3081;50.584;7.032;2022-11-15T10:04:13;14.90;99.90
6102;DHT22;3081;50.584;7.032;2022-11-15T10:06:46;15.00;99.90
6102;DHT22;3081;50.584;7.032;2022-11-15T10:09:19;15.30;99.90
6102;DHT22;3081;50.584;7.032;2022-11-15T10:11:49;15.50;99.90
6102;DHT22;3081;50.584;7.032;2022-11-15T10:14:20;15.90;99.90
6102;DHT22;3081;50.584;7.032;2022-11-15T10:20:05;16.20;98.90
6102;DHT22;3081;50.584;7.032;2022-11-15T10:22:39;16.60;99.20
6102;DHT22;3081;50.584;7.032;2022-11-15T10:25:16;17.40;97.40
6102;DHT22;3081;50.584;7.032;2022-11-15T10:27:46;17.50;96.40
6102;DHT22;3081;50.584;7.032;2022-11-15T10:30:18;17.50;96.70
6102;DHT22;3081;50.584;7.032;2022-11-15T10:32:46;17.80;96.60
6102;DHT22;3081;50.584;7.032;2022-11-15T10:35:24;17.80;96.40
6102;DHT22;3081;50.584;7.032;2022-11-15T10:37:51;18.20;96.20
6102;DHT22;3081;50.584;7.032;2022-11-15T10:40:21;18.10;95.70
6102;DHT22;3081;50.584;7.032;2022-11-15T10:42:49;17.90;96.50
6102;DHT22;3081;50.584;7.032;2022-11-15T10:45:33;18.20;96.70
6102;DHT22;3081;50.584;7.032;2022-11-15T10:48:20;18.10;96.80
6102;DHT22;3081;50.584;7.032;2022-11-15T10:50:48;18.40;96.50
6102;DHT22;3081;50.584;7.032;2022-11-15T10:53:20;18.90;95.70
6102;DHT22;3081;50.584;7.032;2022-11-15T10:55:50;19.20;95.30
6102;DHT22;3081;50.584;7.032;2022-11-15T10:58:27;19.10;95.20
6102;DHT22;3081;50.584;7.032;2022-11-15T11:01:13;18.90;94.60
6102;DHT22;3081;50.584;7.032;2022-11-15T11:03:41;18.70;94.70
6102;DHT22;3081;50.584;7.032;2022-11-15T11:06:11;18.80;95.00
6102;DHT22;3081;50.584;7.032;2022-11-15T11:08:39;18.90;94.30
6102;DHT22;3081;50.584;7.032;2022-11-15T11:11:06;18.80;94.20
6102;DHT22;3081;50.584;7.032;2022-11-15T11:13:35;19.20;94.00
6102;DHT22;3081;50.584;7.032;2022-11-15T11:16:24;20.00;93.10
6102;DHT22;3081;50.584;7.032;2022-11-15T11:19:04;20.40;91.40
6102;DHT22;3081;50.584;7.032;2022-11-15T11:21:40;20.30;91.20
6102;DHT22;3081;50.584;7.032;2022-11-15T11:24:14;20.00;91.20
6102;DHT22;3081;50.584;7.032;2022-11-15T11:26:49;19.70;91.80
6102;DHT22;3081;50.584;7.032;2022-11-15T11:29:34;19.80;92.10
6102;DHT22;3081;50.584;7.032;2022-11-15T11:32:14;20.40;90.80
6102;DHT22;3081;50.584;7.032;2022-11-15T11:34:54;20.20;90.70
6102;DHT22;3081;50.584;7.032;2022-11-15T11:37:31;19.50;91.60
6102;DHT22;3081;50.584;7.032;2022-11-15T11:40:12;18.90;92.80
6102;DHT22;3081;50.584;7.032;2022-11-15T11:42:44;18.60;93.30
6102;DHT22;3081;50.584;7.032;2022-11-15T11:45:18;18.50;93.20
6102;DHT22;3081;50.584;7.032;2022-11-15T11:47:58;17.90;94.20
6102;DHT22;3081;50.584;7.032;2022-11-15T11:50:28;17.30;95.30
6102;DHT22;3081;50.584;7.032;2022-11-15T11:52:57;16.80;95.90
6102;DHT22;3081;50.584;7.032;2022-11-15T11:55:28;16.50;96.70
6102;DHT22;3081;50.584;7.032;2022-11-15T11:58:04;16.20;97.00
6102;DHT22;3081;50.584;7.032;2022-11-15T12:00:34;15.90;97.40
6102;DHT22;3081;50.584;7.032;2022-11-15T12:03:09;15.80;97.40
6102;DHT22;3081;50.584;7.032;2022-11-15T12:05:40;16.00;97.40
6102;DHT22;3081;50.584;7.032;2022-11-15T12:08:22;15.80;97.80
6102;DHT22;3081;50.584;7.032;2022-11-15T12:10:54;15.50;98.50
6102;DHT22;3081;50.584;7.032;2022-11-15T12:13:26;15.40;98.50
6102;DHT22;3081;50.584;7.032;2022-11-15T12:16:05;15.40;98.80
6102;DHT22;3081;50.584;7.032;2022-11-15T12:18:34;15.50;99.20
6102;DHT22;3081;50.584;7.032;2022-11-15T12:21:05;15.70;98.90
6102;DHT22;3081;50.584;7.032;2022-11-15T12:23:40;15.80;98.70
6102;DHT22;3081;50.584;7.032;2022-11-15T12:26:14;15.70;98.70
6102;DHT22;3081;50.584;7.032;2022-11-15T12:28:47;15.60;99.10
6102;DHT22;3081;50.584;7.032;2022-11-15T12:31:18;15.60;99.60
6102;DHT22;3081;50.584;7.032;2022-11-15T12:33:49;15.50;99.70
6102;DHT22;3081;50.584;7.032;2022-11-15T12:36:35;15.60;99.90
6102;DHT22;3081;50.584;7.032;2022-11-15T12:39:04;15.60;99.80
6102;DHT22;3081;50.584;7.032;2022-11-15T12:41:32;15.70;99.70
6102;DHT22;3081;50.584;7.032;2022-11-15T12:44:00;15.70;99.80
6102;DHT22;3081;50.584;7.032;2022-11-15T12:47:02;15.90;99.80
6102;DHT22;3081;50.584;7.032;2022-11-15T12:49:47;16.00;99.60
6102;DHT22;3081;50.584;7.032;2022-11-15T12:52:15;16.00;99.50
6102;DHT22;3081;50.584;7.032;2022-11-15T12:55:00;15.90;99.40
6102;DHT22;3081;50.584;7.032;2022-11-15T12:57:41;15.90;99.50
6102;DHT22;3081;50.584;7.032;2022-11-15T13:00:37;15.90;99.90
6102;DHT22;3081;50.584;7.032;2022-11-15T13:03:31;16.20;99.90
6102;DHT22;3081;50.584;7.032;2022-11-15T13:06:06;16.50;99.50
6102;DHT22;3081;50.584;7.032;2022-11-15T13:08:50;16.60;99.20
6102;DHT22;3081;50.584;7.032;2022-11-15T13:11:43;16.60;98.90
6102;DHT22;3081;50.584;7.032;2022-11-15T13:14:42;16.40;99.20
6102;DHT22;3081;50.584;7.032;2022-11-15T13:17:31;16.50;99.00
6102;DHT22;3081;50.584;7.032;2022-11-15T13:20:19;16.50;99.10
6102;DHT22;3081;50.584;7.032;2022-11-15T13:22:49;16.50;98.90
6102;DHT22;3081;50.584;7.032;2022-11-15T13:28:41;16.30;99.60
6102;DHT22;3081;50.584;7.032;2022-11-15T13:31:28;16.30;99.40
6102;DHT22;3081;50.584;7.032;2022-11-15T13:34:00;16.30;99.30
6102;DHT22;3081;50.584;7.032;2022-11-15T13:36:30;16.20;99.60
6102;DHT22;3081;50.584;7.032;2022-11-15T13:39:02;16.20;99.90
6102;DHT22;3081;50.584;7.032;2022-11-15T13:41:30;16.20;99.90
6102;DHT22;3081;50.584;7.032;2022-11-15T13:43:59;16.20;99.90
6102;DHT22;3081;50.584;7.032;2022-11-15T13:46:27;16.00;99.90
6102;DHT22;3081;50.584;7.032;2022-11-15T13:48:56;15.80;99.90
6102;DHT22;3081;50.584;7.032;2022-11-15T13:51:29;15.70;99.90
6102;DHT22;3081;50.584;7.032;2022-11-15T13:54:01;15.70;99.90
6102;DHT22;3081;50.584;7.032;2022-11-15T13:56:31;15.70;99.90
6102;DHT22;3081;50.584;7.032;2022-11-15T13:58:59;15.70;99.90
6102;DHT22;3081;50.584;7.032;2022-11-15T14:01:29;15.60;99.90
6102;DHT22;3081;50.584;7.032;2022-11-15T14:03:59;15.60;99.90
6102;DHT22;3081;50.584;7.032;2022-11-15T14:06:29;15.50;99.90
6102;DHT22;3081;50.584;7.032;2022-11-15T14:09:32;15.40;99.90
6102;DHT22;3081;50.584;7.032;2022-11-15T14:12:00;15.10;99.90
6102;DHT22;3081;50.584;7.032;2022-11-15T14:14:29;15.00;99.90
6102;DHT22;3081;50.584;7.032;2022-11-15T14:16:58;15.00;99.90
6102;DHT22;3081;50.584;7.032;2022-11-15T14:19:36;14.90;99.90
6102;DHT22;3081;50.584;7.032;2022-11-15T14:22:15;14.90;99.90
6102;DHT22;3081;50.584;7.032;2022-11-15T14:24:45;14.90;99.90
6102;DHT22;3081;50.584;7.032;2022-11-15T14:27:18;14.90;99.90
6102;DHT22;3081;50.584;7.032;2022-11-15T14:29:46;14.90;99.90
6102;DHT22;3081;50.584;7.032;2022-11-15T14:32:15;14.80;99.90
6102;DHT22;3081;50.584;7.032;2022-11-15T14:34:42;14.80;99.90
6102;DHT22;3081;50.584;7.032;2022-11-15T14:37:20;14.70;99.90
6102;DHT22;3081;50.584;7.032;2022-11-15T14:39:50;14.70;99.90
6102;DHT22;3081;50.584;7.032;2022-11-15T14:42:18;14.60;99.90
6102;DHT22;3081;50.584;7.032;2022-11-15T14:44:45;14.60;99.90
6102;DHT22;3081;50.584;7.032;2022-11-15T14:47:12;14.50;99.90
6102;DHT22;3081;50.584;7.032;2022-11-15T14:49:40;14.60;99.90
6102;DHT22;3081;50.584;7.032;2022-11-15T14:52:27;14.60;99.90
6102;DHT22;3081;50.584;7.032;2022-11-15T14:54:56;14.60;99.90
6102;DHT22;3081;50.584;7.032;2022-11-15T14:57:24;14.70;99.90
6102;DHT22;3081;50.584;7.032;2022-11-15T14:59:51;14.60;99.90
6102;DHT22;3081;50.584;7.032;2022-11-15T15:02:20;14.60;99.90
6102;DHT22;3081;50.584;7.032;2022-11-15T15:04:47;14.60;99.90
6102;DHT22;3081;50.584;7.032;2022-11-15T15:07:14;14.50;99.90
6102;DHT22;3081;50.584;7.032;2022-11-15T15:09:42;14.50;99.90
6102;DHT22;3081;50.584;7.032;2022-11-15T15:12:15;14.40;99.90
6102;DHT22;3081;50.584;7.032;2022-11-15T15:14:43;14.30;99.90
6102;DHT22;3081;50.584;7.032;2022-11-15T15:17:10;14.30;99.90
6102;DHT22;3081;50.584;7.032;2022-11-15T15:19:37;14.30;99.90
6102;DHT22;3081;50.584;7.032;2022-11-15T15:22:04;14.20;99.90
6102;DHT22;3081;50.584;7.032;2022-11-15T15:24:31;14.30;99.90
6102;DHT22;3081;50.584;7.032;2022-11-15T15:26:58;14.30;99.90
6102;DHT22;3081;50.584;7.032;2022-11-15T15:29:26;14.20;99.90
6102;DHT22;3081;50.584;7.032;2022-11-15T15:31:53;14.20;99.90
6102;DHT22;3081;50.584;7.032;2022-11-15T15:34:20;14.20;99.90
6102;DHT22;3081;50.584;7.032;2022-11-15T15:36:47;14.20;99.90
6102;DHT22;3081;50.584;7.032;2022-11-15T15:39:14;14.10;99.90
6102;DHT22;3081;50.584;7.032;2022-11-15T15:41:41;14.00;99.90
6102;DHT22;3081;50.584;7.032;2022-11-15T15:44:07;14.00;99.90
6102;DHT22;3081;50.584;7.032;2022-11-15T15:46:36;13.90;99.90
6102;DHT22;3081;50.584;7.032;2022-11-15T15:49:03;13.80;99.90
6102;DHT22;3081;50.584;7.032;2022-11-15T15:51:30;13.70;99.90
6102;DHT22;3081;50.584;7.032;2022-11-15T15:53:56;13.60;99.90
6102;DHT22;3081;50.584;7.032;2022-11-15T15:56:23;13.50;99.90
6102;DHT22;3081;50.584;7.032;2022-11-15T15:58:51;13.40;99.90
6102;DHT22;3081;50.584;7.032;2022-11-15T16:01:18;13.40;99.90
6102;DHT22;3081;50.584;7.032;2022-11-15T16:03:47;13.30;99.90
6102;DHT22;3081;50.584;7.032;2022-11-15T16:06:38;13.30;99.90
6102;DHT22;3081;50.584;7.032;2022-11-15T16:09:12;13.30;99.90
6102;DHT22;3081;50.584;7.032;2022-11-15T16:11:39;13.30;99.90
6102;DHT22;3081;50.584;7.032;2022-11-15T16:14:07;13.30;99.90
6102;DHT22;3081;50.584;7.032;2022-11-15T16:16:34;13.30;99.90
6102;DHT22;3081;50.584;7.032;2022-11-15T16:19:03;13.20;99.90
6102;DHT22;3081;50.584;7.032;2022-11-15T16:21:30;13.30;99.90
6102;DHT22;3081;50.584;7.032;2022-11-15T16:23:57;13.30;99.90
6102;DHT22;3081;50.584;7.032;2022-11-15T16:26:26;13.30;99.90
6102;DHT22;3081;50.584;7.032;2022-11-15T16:28:54;13.40;99.90
6102;DHT22;3081;50.584;7.032;2022-11-15T16:31:21;13.40;99.90
6102;DHT22;3081;50.584;7.032;2022-11-15T16:33:48;13.50;99.90
6102;DHT22;3081;50.584;7.032;2022-11-15T16:36:20;13.60;99.90
6102;DHT22;3081;50.584;7.032;2022-11-15T16:38:48;13.60;99.90